LCRA/AKT METAR and TAF weather

Enter ICAO airport designator
Station Type Date Time Source
LCRA METAR 2019/10/23 02:21 UTC NOAA

LCRA 230221Z 02003KT CAVOK 20/13 Q1011 NOSIG RMK


Station Type Date Time Source
LCRA Decoded METAR 2019/10/23 02:21 UTC NOAA

Akrotiri, Cyprus (LCRA) 34-35N 032-59E 0M
Oct 22, 2019 - 10:21 PM EDT / 2019.10.23 0221 UTC
Wind: from the NNE (020 degrees) at 3 MPH (3 KT):0
Visibility: greater than 7 mile(s):0
Temperature: 68 F (20 C)
Dew Point: 55 F (13 C)
Relative Humidity: 64%
Pressure (altimeter): 29.85 in. Hg (1011 hPa)
ob: LCRA 230221Z 02003KT CAVOK 20/13 Q1011 NOSIG RMK
cycle: 2

Station Type Date Time Source
LCRA TAF 2019/10/23 03:50 UTC NOAA

TAF LCRA 230141Z 2303/2321 35005KT CAVOK
BECMG 2306/2309 06020KT PROB30
TEMPO 2310/2316 VRB20G30KT TSRA SCT040CB
BECMG 2316/2318 03005KT

Example: see airport list